Time;durP1;ratioP1;P1;durP2;ratioP2;P2;SDS_P1;SDS_P2;PMS_P1;PMS_P2;Temp;Humidity;BMP_temperature;BMP_pressure;BME280_temperature;BME280_humidity;BME280_pressure;Samples;Min_cycle;Max_cycle;Signal;HPM_P1;HPM_P2
2022/09/29 00:00:36;;;;;;;8.18;4.88;;;10.70;76.30;;;;;;5115597;28;20111;-60
2022/09/29 00:03:03;;;;;;;8.02;4.70;;;10.70;76.30;;;;;;5116280;28;20088;-60
2022/09/29 00:05:29;;;;;;;8.25;4.55;;;10.70;76.30;;;;;;5116828;27;20465;-59
2022/09/29 00:07:55;;;;;;;9.38;4.47;;;10.70;76.30;;;;;;5124212;27;20023;-59
2022/09/29 00:10:21;;;;;;;8.57;5.20;;;10.60;76.20;;;;;;5118283;27;20364;-59
2022/09/29 00:12:46;;;;;;;7.95;4.47;;;10.60;76.20;;;;;;5115937;28;20023;-59
2022/09/29 00:15:12;;;;;;;8.85;4.55;;;10.60;76.20;;;;;;5116086;28;20040;-59
2022/09/29 00:17:38;;;;;;;11.00;4.72;;;10.60;76.20;;;;;;5115564;27;20452;-59
2022/09/29 00:20:04;;;;;;;10.50;4.70;;;10.60;76.20;;;;;;5119083;27;20122;-59
2022/09/29 00:22:31;;;;;;;8.18;4.53;;;10.60;76.20;;;;;;5124822;27;20027;-60
2022/09/29 00:24:57;;;;;;;8.48;4.97;;;10.60;76.90;;;;;;5132096;27;20032;-60
2022/09/29 00:27:22;;;;;;;10.13;4.50;;;10.60;76.20;;;;;;5114139;27;20140;-59
2022/09/29 00:29:48;;;;;;;7.30;4.70;;;10.60;76.20;;;;;;5114049;28;20027;-59
2022/09/29 00:32:13;;;;;;;8.77;4.68;;;10.60;76.10;;;;;;5115894;28;20038;-59
2022/09/29 00:34:39;;;;;;;8.43;4.45;;;10.60;76.20;;;;;;5116874;27;20038;-59
2022/09/29 00:37:05;;;;;;;8.45;4.30;;;10.60;76.10;;;;;;5125508;27;20062;-59
2022/09/29 00:39:31;;;;;;;8.15;4.63;;;10.50;76.10;;;;;;5115664;28;20035;-59
2022/09/29 00:41:56;;;;;;;8.35;4.50;;;10.50;76.10;;;;;;5115779;28;20039;-59
2022/09/29 00:44:22;;;;;;;13.05;4.80;;;10.50;76.10;;;;;;5114854;28;20084;-59
2022/09/29 00:47:03;;;;;;;8.55;4.65;;;10.50;76.10;;;;;;5115309;28;20020;-59
2022/09/29 00:49:41;;;;;;;8.50;4.90;;;10.50;76.00;;;;;;5115218;28;20420;-59
2022/09/29 00:52:15;;;;;;;8.25;4.78;;;10.50;76.00;;;;;;5115218;28;20024;-59
2022/09/29 00:54:49;;;;;;;8.57;4.75;;;10.50;76.10;;;;;;5116081;28;20501;-59
2022/09/29 00:57:20;;;;;;;9.40;4.95;;;10.40;76.00;;;;;;5114536;28;20406;-59
2022/09/29 01:00:07;;;;;;;7.50;4.25;;;10.40;75.90;;;;;;5115473;28;20447;-59
2022/09/29 01:02:37;;;;;;;8.35;4.30;;;10.40;75.90;;;;;;5114198;28;20466;-59
2022/09/29 01:05:06;;;;;;;8.23;4.38;;;10.40;76.00;;;;;;5114390;28;20399;-59
2022/09/29 01:07:32;;;;;;;7.68;4.38;;;10.40;76.00;;;;;;5117017;27;20523;-59
2022/09/29 01:09:59;;;;;;;7.93;4.50;;;10.40;76.00;;;;;;5115571;28;20027;-59
2022/09/29 01:12:25;;;;;;;8.98;4.72;;;10.30;75.90;;;;;;5115389;28;20103;-59
2022/09/29 01:14:53;;;;;;;8.40;4.50;;;10.30;75.90;;;;;;5115104;28;20055;-59
2022/09/29 01:17:20;;;;;;;7.93;4.25;;;10.30;75.90;;;;;;5114518;28;20049;-60
2022/09/29 01:19:56;;;;;;;7.25;4.45;;;10.30;75.90;;;;;;5112313;28;20117;-60
2022/09/29 01:22:22;;;;;;;6.85;3.88;;;10.30;75.80;;;;;;5115396;28;20027;-59
2022/09/29 01:25:21;;;;;;;7.95;4.32;;;10.30;75.80;;;;;;5115139;28;20444;-59
2022/09/29 01:28:21;;;;;;;7.63;3.95;;;10.30;75.80;;;;;;5114204;28;20122;-59
2022/09/29 01:31:08;;;;;;;7.75;3.92;;;10.20;75.70;;;;;;5115164;28;20067;-60
2022/09/29 01:33:55;;;;;;;7.65;4.18;;;10.20;75.80;;;;;;5115172;28;20023;-59
2022/09/29 01:36:32;;;;;;;7.82;4.53;;;10.20;75.80;;;;;;5125111;28;20031;-59
2022/09/29 01:39:29;;;;;;;6.80;3.85;;;10.20;75.80;;;;;;5114439;28;20135;-59
2022/09/29 01:42:06;;;;;;;7.88;4.13;;;10.20;75.80;;;;;;5116156;28;20344;-59
2022/09/29 01:45:03;;;;;;;10.50;4.50;;;10.10;75.90;;;;;;5117132;27;20042;-59
2022/09/29 01:47:36;;;;;;;7.55;4.20;;;10.10;75.70;;;;;;5104049;28;20031;-59
2022/09/29 01:50:12;;;;;;;8.25;4.50;;;10.10;75.80;;;;;;5114957;28;20055;-59
2022/09/29 01:52:43;;;;;;;7.55;4.30;;;10.10;75.80;;;;;;5114022;28;20084;-60
2022/09/29 01:55:16;;;;;;;8.82;4.25;;;10.10;75.90;;;;;;5115063;27;20076;-60
2022/09/29 01:57:49;;;;;;;8.93;4.13;;;10.10;75.90;;;;;;5127086;27;20476;-59
2022/09/29 02:00:18;;;;;;;9.38;4.43;;;10.00;75.80;;;;;;5117902;27;20028;-59
2022/09/29 02:02:50;;;;;;;9.80;4.18;;;10.00;75.90;;;;;;5119152;28;20027;-60
2022/09/29 02:05:21;;;;;;;7.28;3.53;;;10.00;75.80;;;;;;5119003;28;20092;-59
2022/09/29 02:07:49;;;;;;;6.85;3.67;;;10.00;75.80;;;;;;5118180;28;20367;-60
2022/09/29 02:10:39;;;;;;;6.78;3.72;;;10.00;75.80;;;;;;5118469;28;20020;-60
2022/09/29 02:13:07;;;;;;;9.18;4.00;;;10.00;75.70;;;;;;5097951;28;20047;-60
2022/09/29 02:15:37;;;;;;;7.93;4.20;;;10.00;75.80;;;;;;5118454;28;20433;-60
2022/09/29 02:18:15;;;;;;;8.43;4.25;;;10.00;75.80;;;;;;5117970;28;20352;-60
2022/09/29 02:20:40;;;;;;;7.93;3.95;;;9.90;75.70;;;;;;5117609;27;20031;-60
2022/09/29 02:23:06;;;;;;;7.97;4.30;;;9.90;75.70;;;;;;5118392;28;20020;-60
2022/09/29 02:25:36;;;;;;;9.48;4.80;;;9.90;75.70;;;;;;5116852;27;20504;-61
2022/09/29 02:28:03;;;;;;;7.72;4.32;;;9.90;75.70;;;;;;5118902;27;20067;-60
2022/09/29 02:30:28;;;;;;;8.07;4.15;;;9.90;75.80;;;;;;5119577;27;20120;-60
2022/09/29 02:32:54;;;;;;;7.78;4.25;;;9.90;75.70;;;;;;5118074;28;20069;-59
2022/09/29 02:35:20;;;;;;;8.15;4.13;;;9.90;75.70;;;;;;5134546;27;20024;-59
2022/09/29 02:37:56;;;;;;;8.57;4.80;;;9.80;75.60;;;;;;5115183;27;20475;-59
2022/09/29 02:40:44;;;;;;;8.55;4.45;;;9.80;75.60;;;;;;5121469;27;20556;-60
2022/09/29 02:43:20;;;;;;;8.15;4.47;;;9.80;75.50;;;;;;5118238;28;20016;-59
2022/09/29 02:45:55;;;;;;;9.65;4.30;;;9.80;75.60;;;;;;5118057;28;20059;-60
2022/09/29 02:48:35;;;;;;;6.80;3.75;;;9.80;75.60;;;;;;5118304;27;20460;-60
2022/09/29 02:51:28;;;;;;;7.07;4.10;;;9.80;75.50;;;;;;5117528;28;20051;-60
2022/09/29 02:54:10;;;;;;;8.07;4.50;;;9.80;75.50;;;;;;5121709;27;20042;-60
2022/09/29 02:57:02;;;;;;;7.18;4.00;;;9.70;75.40;;;;;;5118882;27;20031;-60
2022/09/29 02:59:51;;;;;;;7.72;3.90;;;9.70;75.60;;;;;;5111821;28;20104;-60
2022/09/29 03:02:26;;;;;;;8.45;4.28;;;9.70;75.60;;;;;;5117822;28;20348;-60
2022/09/29 03:04:52;;;;;;;7.85;4.45;;;9.70;75.60;;;;;;5116635;28;20032;-60
2022/09/29 03:07:19;;;;;;;8.07;4.25;;;9.60;75.60;;;;;;5114813;27;20046;-60
2022/09/29 03:09:45;;;;;;;9.48;4.45;;;9.70;75.60;;;;;;5132688;27;20073;-60
2022/09/29 03:12:11;;;;;;;7.43;4.28;;;9.60;75.50;;;;;;5117459;28;20031;-60
2022/09/29 03:14:37;;;;;;;7.40;4.05;;;9.60;75.50;;;;;;5117195;28;20028;-60
2022/09/29 03:17:02;;;;;;;8.07;4.40;;;9.60;75.50;;;;;;5117932;27;20043;-60
2022/09/29 03:19:29;;;;;;;7.88;4.30;;;9.60;75.60;;;;;;5117225;28;20158;-60
2022/09/29 03:21:55;;;;;;;7.63;4.22;;;9.60;76.20;;;;;;5116446;28;20198;-60
2022/09/29 03:24:20;;;;;;;8.43;4.53;;;9.60;75.60;;;;;;5122021;27;20102;-60
2022/09/29 03:26:46;;;;;;;8.27;4.50;;;9.60;75.50;;;;;;5120079;27;20034;-60
2022/09/29 03:29:11;;;;;;;8.07;4.60;;;9.60;75.50;;;;;;5116533;27;20027;-60
2022/09/29 03:31:40;;;;;;;8.90;4.60;;;9.60;75.60;;;;;;5117051;28;20032;-60
2022/09/29 03:34:06;;;;;;;7.43;4.38;;;9.50;75.50;;;;;;5116335;28;20466;-60
2022/09/29 03:36:31;;;;;;;8.27;4.40;;;9.50;75.40;;;;;;5118430;27;20031;-59
2022/09/29 03:38:57;;;;;;;8.93;4.40;;;9.50;75.40;;;;;;5118194;27;20019;-60
2022/09/29 03:41:22;;;;;;;7.13;4.10;;;9.50;75.50;;;;;;5116992;28;20020;-60
2022/09/29 03:43:48;;;;;;;7.57;4.32;;;9.50;75.50;;;;;;5117163;28;20321;-60
2022/09/29 03:46:14;;;;;;;8.07;4.40;;;9.50;75.50;;;;;;5116249;27;20027;-60
2022/09/29 03:48:41;;;;;;;9.35;4.32;;;9.40;75.40;;;;;;5115839;28;20348;-60
2022/09/29 03:51:06;;;;;;;7.65;4.63;;;9.40;75.30;;;;;;5116030;28;20027;-60
2022/09/29 03:53:35;;;;;;;7.30;4.50;;;9.40;75.40;;;;;;5117565;27;20106;-60
2022/09/29 03:56:02;;;;;;;7.32;4.22;;;9.40;75.40;;;;;;5116466;28;20141;-60
2022/09/29 03:58:27;;;;;;;7.90;4.53;;;9.40;75.40;;;;;;5115707;28;20119;-60
2022/09/29 04:00:53;;;;;;;8.45;4.28;;;9.40;75.40;;;;;;5116550;28;20520;-59
2022/09/29 04:03:19;;;;;;;7.82;4.20;;;9.40;75.40;;;;;;5116513;28;20444;-60
2022/09/29 04:05:46;;;;;;;7.80;4.03;;;9.40;75.40;;;;;;5131969;27;20038;-60
2022/09/29 04:08:12;;;;;;;9.10;4.80;;;9.40;75.40;;;;;;5116563;28;20034;-59
2022/09/29 04:10:38;;;;;;;7.28;4.50;;;9.30;75.30;;;;;;5113679;27;20027;-60
2022/09/29 04:13:05;;;;;;;7.55;4.22;;;9.30;75.30;;;;;;5116943;28;20031;-60
2022/09/29 04:15:31;;;;;;;8.50;4.70;;;9.30;75.30;;;;;;5115726;28;20130;-60
2022/09/29 04:17:57;;;;;;;9.55;5.03;;;9.30;75.30;;;;;;5115245;28;20386;-60
2022/09/29 04:20:23;;;;;;;7.85;4.78;;;9.30;75.30;;;;;;5114903;28;20024;-59
2022/09/29 04:22:48;;;;;;;7.70;4.53;;;9.30;75.30;;;;;;5115313;28;20081;-60
2022/09/29 04:25:14;;;;;;;8.95;5.35;;;9.30;75.30;;;;;;5115737;28;20349;-60
2022/09/29 04:27:40;;;;;;;9.50;5.50;;;9.30;75.40;;;;;;5114598;28;20031;-60
2022/09/29 04:30:06;;;;;;;9.38;5.88;;;9.30;75.40;;;;;;5115971;27;20065;-60
2022/09/29 04:32:32;;;;;;;11.00;7.10;;;9.30;75.40;;;;;;5115444;28;20091;-60
2022/09/29 04:34:58;;;;;;;13.15;8.60;;;9.30;75.40;;;;;;5115434;28;20024;-60
2022/09/29 04:37:23;;;;;;;13.10;8.18;;;9.30;75.40;;;;;;5114898;27;20039;-60
2022/09/29 04:39:51;;;;;;;14.77;7.57;;;9.30;75.40;;;;;;5116657;27;20035;-59
2022/09/29 04:42:17;;;;;;;12.85;7.45;;;9.30;75.40;;;;;;5124288;27;20031;-60
2022/09/29 04:44:43;;;;;;;11.77;6.63;;;9.30;75.50;;;;;;5115723;28;20043;-60
2022/09/29 04:47:08;;;;;;;10.38;5.93;;;9.30;75.70;;;;;;5114942;28;20026;-60
2022/09/29 04:49:34;;;;;;;13.13;6.90;;;9.30;75.70;;;;;;5114970;27;20074;-60
2022/09/29 04:52:00;;;;;;;10.68;6.20;;;9.30;75.80;;;;;;5114503;28;20124;-60
2022/09/29 04:54:32;;;;;;;12.00;6.82;;;9.30;75.90;;;;;;5114273;28;20036;-59
2022/09/29 04:56:58;;;;;;;12.32;6.80;;;9.30;76.00;;;;;;5112212;28;20119;-60
2022/09/29 04:59:24;;;;;;;13.93;8.45;;;9.30;76.10;;;;;;5114674;28;20145;-60
2022/09/29 05:01:49;;;;;;;13.63;7.57;;;9.30;76.30;;;;;;5114374;28;20028;-60
2022/09/29 05:04:15;;;;;;;14.45;6.57;;;9.30;76.40;;;;;;5114467;27;20023;-60
2022/09/29 05:06:41;;;;;;;12.90;6.30;;;9.30;76.50;;;;;;5113716;28;20028;-60
2022/09/29 05:09:07;;;;;;;9.05;5.38;;;9.30;76.50;;;;;;5113349;28;20028;-59
2022/09/29 05:11:33;;;;;;;11.05;5.40;;;9.30;76.60;;;;;;5115014;28;20028;-60
2022/09/29 05:13:59;;;;;;;7.53;4.25;;;9.30;76.60;;;;;;5129240;27;20015;-59
2022/09/29 05:16:25;;;;;;;9.98;5.20;;;9.30;77.30;;;;;;5110046;28;20040;-60
2022/09/29 05:18:52;;;;;;;8.70;4.72;;;9.30;76.70;;;;;;5113616;28;20061;-59
2022/09/29 05:21:17;;;;;;;9.15;5.25;;;9.30;76.70;;;;;;5111293;27;20333;-59
2022/09/29 05:23:43;;;;;;;9.18;4.68;;;9.30;76.70;;;;;;5113611;27;20063;-60
2022/09/29 05:26:10;;;;;;;8.82;4.53;;;9.30;76.70;;;;;;5118113;27;20027;-59
2022/09/29 05:28:38;;;;;;;8.05;4.65;;;9.30;76.70;;;;;;5115166;28;20042;-60
2022/09/29 05:31:06;;;;;;;8.63;4.80;;;9.30;76.80;;;;;;5114236;28;20059;-59
2022/09/29 05:33:33;;;;;;;9.20;4.65;;;9.30;76.90;;;;;;5105702;28;20452;-59
2022/09/29 05:35:59;;;;;;;9.30;5.10;;;9.30;76.90;;;;;;5131752;28;20031;-59
2022/09/29 05:38:25;;;;;;;11.27;5.50;;;9.30;76.90;;;;;;5114959;28;20027;-60
2022/09/29 05:40:51;;;;;;;13.70;6.05;;;9.30;77.00;;;;;;5115419;28;20102;-60
2022/09/29 05:43:18;;;;;;;9.70;5.40;;;9.30;77.00;;;;;;5115365;28;20034;-60
2022/09/29 05:45:43;;;;;;;10.85;5.40;;;9.30;77.10;;;;;;5125782;28;20375;-60
2022/09/29 05:48:09;;;;;;;8.55;5.00;;;9.30;77.10;;;;;;5115644;28;20034;-60
2022/09/29 05:50:42;;;;;;;10.13;5.20;;;9.30;77.20;;;;;;5116226;28;20046;-60
2022/09/29 05:53:08;;;;;;;9.32;5.43;;;9.30;77.20;;;;;;5114979;28;20081;-60
2022/09/29 05:55:37;;;;;;;11.80;5.65;;;9.30;77.20;;;;;;5114237;28;20035;-59
2022/09/29 05:58:04;;;;;;;11.23;5.45;;;9.40;77.40;;;;;;5118036;28;20028;-59
2022/09/29 06:00:31;;;;;;;15.48;5.40;;;9.40;77.40;;;;;;5114978;28;20024;-59
2022/09/29 06:03:00;;;;;;;10.48;5.07;;;9.40;77.40;;;;;;5130518;28;20036;-59
2022/09/29 06:05:27;;;;;;;9.82;5.63;;;9.40;77.50;;;;;;5106975;28;20039;-61
2022/09/29 06:07:53;;;;;;;12.65;6.28;;;9.40;77.60;;;;;;5113660;28;20321;-62
2022/09/29 06:10:19;;;;;;;13.15;6.35;;;9.40;77.60;;;;;;5113396;28;20028;-61
2022/09/29 06:12:45;;;;;;;15.38;6.13;;;9.40;77.70;;;;;;5113315;28;20051;-65
2022/09/29 06:15:11;;;;;;;9.90;5.95;;;9.40;77.60;;;;;;5114497;28;20128;-66
2022/09/29 06:17:37;;;;;;;9.88;5.20;;;9.40;77.70;;;;;;5114738;28;20032;-66
2022/09/29 06:20:05;;;;;;;12.48;6.07;;;9.40;77.60;;;;;;5117161;28;20027;-65
2022/09/29 06:22:31;;;;;;;16.08;6.03;;;9.50;77.70;;;;;;5112190;28;20027;-65
2022/09/29 06:24:57;;;;;;;11.90;6.15;;;9.50;77.60;;;;;;5113453;28;20023;-65
2022/09/29 06:27:23;;;;;;;14.48;7.32;;;9.50;77.60;;;;;;5115506;28;20051;-66
2022/09/29 06:29:48;;;;;;;12.52;6.43;;;9.50;77.60;;;;;;5112728;28;20081;-65
2022/09/29 06:32:14;;;;;;;14.95;7.68;;;9.50;77.60;;;;;;5113177;28;20456;-65
2022/09/29 06:37:33;;;;;;;14.13;8.32;;;9.60;77.70;;;;;;5113507;28;20089;-65
2022/09/29 06:37:35;;;;;;;14.10;8.25;;;9.60;77.60;;;;;;5115719;28;20080;-65
2022/09/29 06:40:03;;;;;;;12.40;7.50;;;9.60;77.60;;;;;;5119733;28;20019;-66
2022/09/29 06:42:29;;;;;;;12.82;7.97;;;9.60;77.60;;;;;;5111503;28;20012;-65
2022/09/29 06:44:56;;;;;;;12.48;8.07;;;9.60;77.60;;;;;;5121178;27;20050;-66
2022/09/29 06:47:22;;;;;;;15.32;8.48;;;9.60;77.60;;;;;;5122155;27;20507;-66
2022/09/29 06:49:49;;;;;;;13.93;8.40;;;9.70;77.60;;;;;;5120296;27;20463;-67
2022/09/29 06:52:16;;;;;;;11.52;8.00;;;9.70;77.60;;;;;;5115416;27;20118;-66
2022/09/29 06:54:41;;;;;;;12.38;7.40;;;9.70;77.60;;;;;;5127869;27;20027;-66
2022/09/29 06:57:08;;;;;;;13.02;6.78;;;9.70;77.60;;;;;;5117084;27;20398;-66
2022/09/29 06:59:34;;;;;;;12.88;7.97;;;9.80;77.70;;;;;;5117736;28;20351;-66
2022/09/29 07:01:59;;;;;;;11.65;8.25;;;9.80;77.70;;;;;;5116195;28;20098;-66
2022/09/29 07:04:25;;;;;;;13.93;8.60;;;9.80;77.60;;;;;;5118677;27;20023;-66
2022/09/29 07:06:51;;;;;;;12.30;9.02;;;9.80;77.60;;;;;;5116877;27;20059;-65
2022/09/29 07:09:17;;;;;;;13.35;8.52;;;9.90;77.60;;;;;;5116027;27;20020;-65
2022/09/29 07:11:49;;;;;;;12.77;8.23;;;9.90;77.50;;;;;;5117364;28;20032;-65
2022/09/29 07:14:16;;;;;;;15.25;8.90;;;10.00;77.60;;;;;;5118131;28;20020;-65
2022/09/29 07:16:42;;;;;;;12.10;8.23;;;10.00;77.50;;;;;;5117872;27;20040;-65
2022/09/29 07:19:08;;;;;;;13.80;8.90;;;10.00;77.50;;;;;;5132280;27;20341;-65
2022/09/29 07:21:34;;;;;;;16.38;9.27;;;10.00;77.50;;;;;;5134016;27;20038;-65
2022/09/29 07:24:00;;;;;;;12.95;8.45;;;10.10;77.50;;;;;;5133248;27;20016;-65
2022/09/29 07:26:26;;;;;;;16.13;9.18;;;10.10;77.50;;;;;;5117043;28;20414;-65
2022/09/29 07:28:51;;;;;;;14.35;9.48;;;10.10;77.50;;;;;;5117636;27;20032;-65
2022/09/29 07:31:19;;;;;;;13.40;8.93;;;10.10;77.60;;;;;;5117648;28;20060;-65
2022/09/29 07:33:47;;;;;;;14.52;10.18;;;10.10;77.60;;;;;;5116906;28;20031;-65
2022/09/29 07:36:13;;;;;;;16.13;9.30;;;10.20;77.70;;;;;;5118156;27;20019;-67
2022/09/29 07:38:39;;;;;;;14.38;8.93;;;10.20;77.70;;;;;;5127980;27;20102;-66
2022/09/29 07:41:08;;;;;;;15.00;9.77;;;10.20;77.70;;;;;;5116288;27;20107;-65
2022/09/29 07:43:34;;;;;;;14.15;9.27;;;10.30;77.80;;;;;;5117137;28;20459;-65
2022/09/29 07:46:00;;;;;;;16.30;9.15;;;10.30;77.70;;;;;;5115934;28;20043;-66
2022/09/29 07:48:26;;;;;;;16.48;10.63;;;10.30;77.80;;;;;;5117038;28;20067;-66
2022/09/29 07:50:52;;;;;;;16.42;10.70;;;10.30;77.80;;;;;;5120010;27;20080;-65
2022/09/29 07:53:17;;;;;;;18.02;11.73;;;10.40;77.80;;;;;;5127373;27;20377;-66
2022/09/29 07:55:43;;;;;;;18.45;11.45;;;10.40;77.80;;;;;;5115209;27;20509;-66
2022/09/29 07:58:09;;;;;;;19.55;12.50;;;10.50;77.80;;;;;;5114661;28;20034;-65
2022/09/29 08:00:35;;;;;;;19.73;13.15;;;10.50;77.80;;;;;;5114530;27;20038;-64
2022/09/29 08:03:06;;;;;;;23.58;14.68;;;10.60;77.80;;;;;;5115973;28;20024;-65
2022/09/29 08:05:33;;;;;;;22.65;14.15;;;10.60;77.80;;;;;;5116066;28;20031;-65
2022/09/29 08:08:00;;;;;;;22.40;14.35;;;10.60;77.70;;;;;;5118136;27;20023;-65
2022/09/29 08:10:26;;;;;;;24.27;15.60;;;10.70;78.40;;;;;;5125260;27;20042;-65
2022/09/29 08:12:53;;;;;;;23.27;14.45;;;10.70;77.80;;;;;;5116868;27;20054;-64
2022/09/29 08:15:19;;;;;;;22.67;14.70;;;10.70;77.80;;;;;;5114378;28;20066;-65
2022/09/29 08:17:45;;;;;;;22.55;14.98;;;10.80;77.90;;;;;;5115943;28;20020;-65
2022/09/29 08:20:11;;;;;;;24.52;14.73;;;10.80;77.80;;;;;;5116364;28;20027;-65
2022/09/29 08:22:36;;;;;;;21.75;14.43;;;10.90;77.70;;;;;;5115601;28;20023;-64
2022/09/29 08:25:03;;;;;;;26.27;16.17;;;11.00;77.70;;;;;;5115038;28;20088;-65
2022/09/29 08:27:28;;;;;;;25.85;15.70;;;11.00;77.70;;;;;;5114770;28;20390;-64
2022/09/29 08:29:56;;;;;;;20.80;15.07;;;11.10;77.70;;;;;;5115511;28;20031;-65
2022/09/29 08:32:22;;;;;;;25.02;16.55;;;11.20;77.60;;;;;;5114592;28;20039;-65
2022/09/29 08:34:48;;;;;;;19.75;15.02;;;11.30;77.50;;;;;;5114795;28;20341;-65
2022/09/29 08:37:13;;;;;;;21.30;16.38;;;11.30;77.30;;;;;;5116074;28;20031;-65
2022/09/29 08:39:39;;;;;;;21.45;16.13;;;11.40;77.20;;;;;;5116165;28;20024;-65
2022/09/29 08:42:21;;;;;;;21.58;15.82;;;11.40;77.20;;;;;;5117846;27;20106;-65
2022/09/29 08:44:57;;;;;;;22.15;15.38;;;11.70;77.10;;;;;;5117345;27;20468;-65
2022/09/29 08:47:38;;;;;;;20.30;15.98;;;11.90;76.50;;;;;;5116289;28;20028;-65
2022/09/29 08:50:13;;;;;;;20.70;16.58;;;12.00;76.30;;;;;;5115114;28;20118;-65
2022/09/29 08:52:46;;;;;;;23.90;16.58;;;12.00;76.30;;;;;;5116078;28;20036;-65
2022/09/29 08:55:39;;;;;;;23.90;17.95;;;12.20;76.20;;;;;;5115727;28;20085;-65
2022/09/29 08:58:11;;;;;;;21.90;18.27;;;12.40;75.50;;;;;;5114931;28;20016;-65
2022/09/29 09:00:58;;;;;;;24.15;17.90;;;12.40;75.30;;;;;;5115807;28;20035;-65
2022/09/29 09:03:32;;;;;;;25.27;17.80;;;12.30;75.30;;;;;;5115708;28;20036;-65
2022/09/29 09:06:23;;;;;;;23.23;18.48;;;12.20;75.50;;;;;;5114637;28;20053;-65
2022/09/29 09:09:23;;;;;;;22.33;18.05;;;12.20;75.90;;;;;;5115224;28;20436;-65
2022/09/29 09:12:04;;;;;;;24.00;18.73;;;12.20;75.90;;;;;;5108836;27;20121;-65
2022/09/29 09:14:35;;;;;;;24.02;19.73;;;12.60;75.70;;;;;;5112977;27;20035;-65
2022/09/29 09:17:22;;;;;;;22.30;17.95;;;12.60;75.10;;;;;;5116237;27;20072;-66
2022/09/29 09:20:00;;;;;;;23.13;18.67;;;12.70;75.10;;;;;;5106274;28;20432;-66
2022/09/29 09:22:52;;;;;;;24.25;17.58;;;12.90;74.90;;;;;;5118364;28;20120;-65
2022/09/29 09:25:41;;;;;;;23.67;17.98;;;13.30;75.20;;;;;;5119511;27;20114;-65
2022/09/29 09:28:38;;;;;;;26.35;18.65;;;13.70;73.60;;;;;;5114143;28;20088;-66
2022/09/29 09:31:13;;;;;;;24.38;18.15;;;14.10;72.80;;;;;;5119709;28;20422;-65
2022/09/29 09:33:46;;;;;;;20.70;16.88;;;14.40;72.20;;;;;;5115040;28;20023;-64
2022/09/29 09:36:24;;;;;;;21.95;18.02;;;14.70;71.80;;;;;;5114674;28;20108;-65
2022/09/29 09:39:04;;;;;;;23.02;19.30;;;14.90;71.20;;;;;;5120352;28;20040;-65
2022/09/29 09:41:32;;;;;;;22.33;17.80;;;15.10;70.90;;;;;;5114358;28;20406;-65
2022/09/29 09:44:14;;;;;;;22.33;18.42;;;15.20;70.60;;;;;;5114890;28;20058;-65
2022/09/29 09:46:48;;;;;;;21.58;16.63;;;15.30;70.20;;;;;;5115060;28;20031;-66
2022/09/29 09:49:23;;;;;;;22.08;17.48;;;15.40;69.90;;;;;;5114763;28;20047;-65
2022/09/29 09:51:56;;;;;;;17.15;14.93;;;15.60;69.60;;;;;;5118743;28;20068;-65
2022/09/29 09:54:30;;;;;;;17.95;14.98;;;15.70;69.30;;;;;;5118072;28;20049;-65
2022/09/29 09:57:48;;;;;;;16.52;14.43;;;15.70;69.00;;;;;;5114725;28;20031;-65
2022/09/29 10:00:19;;;;;;;16.80;13.55;;;15.90;69.40;;;;;;5113792;28;20019;-64
2022/09/29 10:02:49;;;;;;;17.75;14.13;;;16.00;68.50;;;;;;5114505;28;20360;-65
2022/09/29 10:05:25;;;;;;;15.65;13.18;;;16.00;68.30;;;;;;5114720;28;20031;-65
2022/09/29 10:07:51;;;;;;;17.73;13.25;;;16.10;68.20;;;;;;5114801;28;20080;-65
2022/09/29 10:10:24;;;;;;;15.77;13.27;;;16.20;68.10;;;;;;5114170;28;20347;-64
2022/09/29 10:12:57;;;;;;;15.40;12.70;;;16.40;67.70;;;;;;5114147;28;20107;-65
2022/09/29 10:15:37;;;;;;;15.40;11.65;;;16.50;67.70;;;;;;5113403;28;20040;-66
2022/09/29 10:18:23;;;;;;;14.73;12.40;;;16.60;67.50;;;;;;5116671;28;20038;-66
2022/09/29 10:20:49;;;;;;;13.18;10.27;;;16.80;67.00;;;;;;5134464;27;20035;-65
2022/09/29 10:23:24;;;;;;;14.65;10.77;;;16.90;67.00;;;;;;5128508;27;20364;-65
2022/09/29 10:26:14;;;;;;;13.57;10.38;;;17.00;66.70;;;;;;5115476;28;20085;-65
2022/09/29 10:28:53;;;;;;;12.77;10.23;;;17.00;66.10;;;;;;5116068;27;20407;-66
2022/09/29 10:31:23;;;;;;;13.50;10.07;;;17.10;65.90;;;;;;5117366;28;20024;-65
2022/09/29 10:33:53;;;;;;;14.27;10.65;;;17.20;65.70;;;;;;5116614;28;20038;-65
2022/09/29 10:36:20;;;;;;;11.90;9.85;;;17.20;65.50;;;;;;5115647;28;20023;-65
2022/09/29 10:38:49;;;;;;;12.35;9.25;;;17.30;65.60;;;;;;5124634;27;20081;-66
2022/09/29 10:41:17;;;;;;;13.05;9.40;;;17.40;65.30;;;;;;5121455;27;20035;-65
2022/09/29 10:43:43;;;;;;;14.40;10.00;;;17.40;65.10;;;;;;5118347;28;20107;-65
2022/09/29 10:46:36;;;;;;;12.55;9.02;;;17.50;65.00;;;;;;5111589;28;20027;-66
2022/09/29 10:49:19;;;;;;;12.23;8.15;;;17.60;64.90;;;;;;5118015;28;20023;-65
2022/09/29 10:51:59;;;;;;;10.30;7.90;;;17.60;64.70;;;;;;5118277;28;20039;-64
2022/09/29 10:54:26;;;;;;;10.82;8.07;;;17.70;64.50;;;;;;5117511;28;20376;-65
2022/09/29 10:56:54;;;;;;;12.07;9.18;;;17.60;64.20;;;;;;5122456;27;20029;-65
2022/09/29 10:59:22;;;;;;;13.10;8.20;;;17.60;63.80;;;;;;5127517;27;20031;-65
2022/09/29 11:01:59;;;;;;;10.35;7.75;;;17.60;63.70;;;;;;5117275;28;20057;-65
2022/09/29 11:04:32;;;;;;;10.55;7.75;;;17.70;63.60;;;;;;5116965;28;20031;-65
2022/09/29 11:07:10;;;;;;;11.95;7.57;;;17.70;63.60;;;;;;5117774;28;20057;-65
2022/09/29 11:09:43;;;;;;;12.77;7.93;;;17.70;63.50;;;;;;5117857;28;20027;-65
2022/09/29 11:12:27;;;;;;;12.52;8.43;;;17.80;63.30;;;;;;5125477;27;20359;-65
2022/09/29 11:14:53;;;;;;;10.43;7.57;;;17.80;62.80;;;;;;5112068;28;20057;-65
2022/09/29 11:17:36;;;;;;;10.60;7.53;;;17.70;63.10;;;;;;5116546;28;20016;-65
2022/09/29 11:20:09;;;;;;;11.05;7.55;;;17.80;63.00;;;;;;5118752;27;20081;-64
2022/09/29 11:22:59;;;;;;;11.70;7.80;;;17.90;63.00;;;;;;5116578;27;20028;-64
2022/09/29 11:25:31;;;;;;;10.68;7.57;;;17.90;62.80;;;;;;5116206;28;20340;-65
2022/09/29 11:28:14;;;;;;;11.90;7.90;;;17.90;62.70;;;;;;5115914;28;20116;-66
2022/09/29 11:30:55;;;;;;;12.00;8.60;;;17.90;62.40;;;;;;5133588;27;20027;-66
2022/09/29 11:33:42;;;;;;;12.15;7.72;;;17.90;62.30;;;;;;5117630;28;20028;-64
2022/09/29 11:36:31;;;;;;;11.43;7.05;;;17.90;61.90;;;;;;5117349;28;20087;-64
2022/09/29 11:39:15;;;;;;;12.57;7.22;;;17.90;62.10;;;;;;5133159;27;20024;-64
2022/09/29 11:41:55;;;;;;;11.05;6.97;;;17.90;61.80;;;;;;5120869;27;20023;-64
2022/09/29 11:44:34;;;;;;;11.82;7.35;;;17.80;62.00;;;;;;5110881;27;20420;-66
2022/09/29 11:47:17;;;;;;;9.82;6.38;;;17.70;62.20;;;;;;5114562;27;20483;-66
2022/09/29 11:50:01;;;;;;;9.32;6.43;;;17.50;62.20;;;;;;5114490;28;20487;-66
2022/09/29 11:52:37;;;;;;;9.35;6.30;;;17.20;62.20;;;;;;5116515;28;20024;-64
2022/09/29 11:55:30;;;;;;;9.60;6.75;;;17.00;62.80;;;;;;5116693;28;20046;-64
2022/09/29 11:58:24;;;;;;;10.73;6.45;;;17.00;62.90;;;;;;5119639;27;20042;-64
2022/09/29 12:01:00;;;;;;;8.52;4.88;;;17.10;62.70;;;;;;5102742;28;20027;-64
2022/09/29 12:03:36;;;;;;;7.50;4.40;;;17.20;62.50;;;;;;5132731;27;20035;-64
2022/09/29 12:06:15;;;;;;;9.32;4.65;;;17.30;62.20;;;;;;5117122;27;20088;-64
2022/09/29 12:08:51;;;;;;;8.77;5.45;;;17.20;62.20;;;;;;5116728;28;20039;-64
2022/09/29 12:11:33;;;;;;;10.00;5.97;;;17.00;62.50;;;;;;5131648;27;20031;-64
2022/09/29 12:14:24;;;;;;;9.35;5.38;;;16.90;62.50;;;;;;5121929;27;20554;-64
2022/09/29 12:16:57;;;;;;;8.40;4.90;;;16.80;62.60;;;;;;5116254;28;20048;-64
2022/09/29 12:19:27;;;;;;;9.93;5.18;;;16.70;62.80;;;;;;5121337;27;20321;-64
2022/09/29 12:21:58;;;;;;;7.97;5.20;;;16.70;62.60;;;;;;5115340;28;20028;-64
2022/09/29 12:24:34;;;;;;;8.90;4.78;;;16.80;62.30;;;;;;5116102;28;20352;-65
2022/09/29 12:27:05;;;;;;;8.18;4.80;;;16.90;62.10;;;;;;5116597;28;20390;-65
2022/09/29 12:29:37;;;;;;;8.02;4.50;;;17.10;61.80;;;;;;5116192;28;20089;-64
2022/09/29 12:32:40;;;;;;;7.88;3.90;;;17.10;61.50;;;;;;5116172;28;20034;-64
2022/09/29 12:35:17;;;;;;;6.63;3.40;;;17.10;61.00;;;;;;5122892;27;20027;-64
2022/09/29 12:37:59;;;;;;;7.38;3.35;;;17.20;60.80;;;;;;5132497;27;20036;-65
2022/09/29 12:40:42;;;;;;;7.28;3.60;;;17.30;60.60;;;;;;5113012;28;20023;-64
2022/09/29 12:43:26;;;;;;;6.85;3.60;;;17.30;60.60;;;;;;5113583;28;20026;-65
2022/09/29 12:45:58;;;;;;;7.07;3.72;;;17.10;60.80;;;;;;5115419;28;20106;-65
2022/09/29 12:48:48;;;;;;;7.45;3.92;;;17.00;60.90;;;;;;5116129;28;20027;-64
2022/09/29 12:51:34;;;;;;;7.85;4.03;;;16.80;61.00;;;;;;5118458;27;20056;-64
2022/09/29 12:54:21;;;;;;;6.75;3.33;;;16.60;62.50;;;;;;5120086;27;20976;-64
2022/09/29 12:57:07;;;;;;;7.45;4.15;;;16.50;62.20;;;;;;5116121;28;20118;-64
2022/09/29 13:00:11;;;;;;;6.43;3.70;;;16.30;62.60;;;;;;5115868;27;20028;-64
2022/09/29 13:02:48;;;;;;;6.45;3.70;;;16.20;63.10;;;;;;5115077;27;20329;-64
2022/09/29 13:05:38;;;;;;;7.85;4.00;;;16.10;63.20;;;;;;5124712;27;20047;-64
2022/09/29 13:08:40;;;;;;;6.65;3.80;;;16.00;63.30;;;;;;5112922;27;20478;-64